sensor_id;sensor_type;location;lat;lon;timestamp;P1;durP1;ratioP1;P2;durP2;ratioP2
53873;SDS011;62246;50.938;4.058;2022-11-20T00:01:09;74.70;;;30.60;;
53873;SDS011;62246;50.938;4.058;2022-11-20T00:03:36;76.07;;;29.83;;
53873;SDS011;62246;50.938;4.058;2022-11-20T00:06:06;76.70;;;29.52;;
53873;SDS011;62246;50.938;4.058;2022-11-20T00:08:33;81.15;;;29.92;;
53873;SDS011;62246;50.938;4.058;2022-11-20T00:11:03;82.75;;;29.45;;
53873;SDS011;62246;50.938;4.058;2022-11-20T00:13:38;87.68;;;31.95;;
53873;SDS011;62246;50.938;4.058;2022-11-20T00:16:05;84.88;;;32.65;;
53873;SDS011;62246;50.938;4.058;2022-11-20T00:18:32;90.80;;;31.20;;
53873;SDS011;62246;50.938;4.058;2022-11-20T00:21:32;76.93;;;30.55;;
53873;SDS011;62246;50.938;4.058;2022-11-20T00:23:52;68.93;;;28.45;;
53873;SDS011;62246;50.938;4.058;2022-11-20T00:26:19;71.55;;;29.60;;
53873;SDS011;62246;50.938;4.058;2022-11-20T00:28:52;66.85;;;27.83;;
53873;SDS011;62246;50.938;4.058;2022-11-20T00:31:19;65.07;;;28.58;;
53873;SDS011;62246;50.938;4.058;2022-11-20T00:33:46;65.90;;;27.90;;
53873;SDS011;62246;50.938;4.058;2022-11-20T00:36:16;75.50;;;30.02;;
53873;SDS011;62246;50.938;4.058;2022-11-20T00:38:43;72.10;;;28.83;;
53873;SDS011;62246;50.938;4.058;2022-11-20T00:41:10;76.85;;;31.13;;
53873;SDS011;62246;50.938;4.058;2022-11-20T00:43:37;73.10;;;27.88;;
53873;SDS011;62246;50.938;4.058;2022-11-20T00:46:05;81.68;;;30.25;;
53873;SDS011;62246;50.938;4.058;2022-11-20T00:48:34;71.45;;;29.30;;
53873;SDS011;62246;50.938;4.058;2022-11-20T00:51:00;62.83;;;27.33;;
53873;SDS011;62246;50.938;4.058;2022-11-20T00:53:26;70.30;;;29.50;;
53873;SDS011;62246;50.938;4.058;2022-11-20T00:55:55;68.95;;;27.90;;
53873;SDS011;62246;50.938;4.058;2022-11-20T00:58:22;67.30;;;28.13;;
53873;SDS011;62246;50.938;4.058;2022-11-20T01:00:48;65.45;;;28.15;;
53873;SDS011;62246;50.938;4.058;2022-11-20T01:03:15;61.75;;;26.67;;
53873;SDS011;62246;50.938;4.058;2022-11-20T01:05:42;59.47;;;26.48;;
53873;SDS011;62246;50.938;4.058;2022-11-20T01:08:08;71.85;;;28.38;;
53873;SDS011;62246;50.938;4.058;2022-11-20T01:10:33;65.95;;;28.38;;
53873;SDS011;62246;50.938;4.058;2022-11-20T01:12:59;62.13;;;26.83;;
53873;SDS011;62246;50.938;4.058;2022-11-20T01:15:43;72.57;;;28.38;;
53873;SDS011;62246;50.938;4.058;2022-11-20T01:18:08;65.47;;;27.88;;
53873;SDS011;62246;50.938;4.058;2022-11-20T01:20:34;64.43;;;27.33;;
53873;SDS011;62246;50.938;4.058;2022-11-20T01:23:01;68.35;;;28.40;;
53873;SDS011;62246;50.938;4.058;2022-11-20T01:25:27;67.80;;;28.23;;
53873;SDS011;62246;50.938;4.058;2022-11-20T01:27:52;70.57;;;30.50;;
53873;SDS011;62246;50.938;4.058;2022-11-20T01:30:17;77.78;;;31.27;;
53873;SDS011;62246;50.938;4.058;2022-11-20T01:32:43;69.47;;;29.23;;
53873;SDS011;62246;50.938;4.058;2022-11-20T01:35:09;81.43;;;31.05;;
53873;SDS011;62246;50.938;4.058;2022-11-20T01:37:35;77.68;;;29.92;;
53873;SDS011;62246;50.938;4.058;2022-11-20T01:40:00;72.28;;;29.08;;
53873;SDS011;62246;50.938;4.058;2022-11-20T01:42:28;69.53;;;27.55;;
53873;SDS011;62246;50.938;4.058;2022-11-20T01:48:15;77.45;;;30.60;;
53873;SDS011;62246;50.938;4.058;2022-11-20T01:50:43;73.07;;;28.92;;
53873;SDS011;62246;50.938;4.058;2022-11-20T01:53:10;77.70;;;29.92;;
53873;SDS011;62246;50.938;4.058;2022-11-20T01:55:40;75.28;;;31.27;;
53873;SDS011;62246;50.938;4.058;2022-11-20T01:58:09;80.80;;;32.20;;
53873;SDS011;62246;50.938;4.058;2022-11-20T02:00:35;70.60;;;28.52;;
53873;SDS011;62246;50.938;4.058;2022-11-20T02:03:02;80.53;;;31.08;;
53873;SDS011;62246;50.938;4.058;2022-11-20T02:05:47;78.72;;;31.05;;
53873;SDS011;62246;50.938;4.058;2022-11-20T02:08:20;75.10;;;30.17;;
53873;SDS011;62246;50.938;4.058;2022-11-20T02:10:48;79.93;;;30.50;;
53873;SDS011;62246;50.938;4.058;2022-11-20T02:13:13;76.38;;;30.25;;
53873;SDS011;62246;50.938;4.058;2022-11-20T02:15:58;82.85;;;31.30;;
53873;SDS011;62246;50.938;4.058;2022-11-20T02:18:24;77.10;;;31.35;;
53873;SDS011;62246;50.938;4.058;2022-11-20T02:21:01;86.97;;;32.33;;
53873;SDS011;62246;50.938;4.058;2022-11-20T02:26:43;81.60;;;30.75;;
53873;SDS011;62246;50.938;4.058;2022-11-20T02:29:13;82.53;;;29.77;;
53873;SDS011;62246;50.938;4.058;2022-11-20T02:31:42;80.05;;;31.92;;
53873;SDS011;62246;50.938;4.058;2022-11-20T02:34:11;78.40;;;31.45;;
53873;SDS011;62246;50.938;4.058;2022-11-20T02:36:38;76.72;;;30.52;;
53873;SDS011;62246;50.938;4.058;2022-11-20T02:39:05;82.68;;;31.05;;
53873;SDS011;62246;50.938;4.058;2022-11-20T02:41:32;86.43;;;32.55;;
53873;SDS011;62246;50.938;4.058;2022-11-20T02:43:59;86.65;;;32.53;;
53873;SDS011;62246;50.938;4.058;2022-11-20T02:46:24;92.43;;;33.22;;
53873;SDS011;62246;50.938;4.058;2022-11-20T02:48:50;92.10;;;34.00;;
53873;SDS011;62246;50.938;4.058;2022-11-20T02:51:15;98.07;;;33.75;;
53873;SDS011;62246;50.938;4.058;2022-11-20T02:53:41;85.70;;;30.95;;
53873;SDS011;62246;50.938;4.058;2022-11-20T02:56:06;85.28;;;32.80;;
53873;SDS011;62246;50.938;4.058;2022-11-20T02:58:32;90.07;;;32.97;;
53873;SDS011;62246;50.938;4.058;2022-11-20T03:00:57;87.78;;;31.38;;
53873;SDS011;62246;50.938;4.058;2022-11-20T03:03:22;90.05;;;33.55;;
53873;SDS011;62246;50.938;4.058;2022-11-20T03:05:48;85.40;;;31.50;;
53873;SDS011;62246;50.938;4.058;2022-11-20T03:08:13;87.68;;;32.20;;
53873;SDS011;62246;50.938;4.058;2022-11-20T03:10:39;86.38;;;33.13;;
53873;SDS011;62246;50.938;4.058;2022-11-20T03:13:04;87.53;;;31.77;;
53873;SDS011;62246;50.938;4.058;2022-11-20T03:15:30;95.03;;;30.30;;
53873;SDS011;62246;50.938;4.058;2022-11-20T03:17:55;86.03;;;31.75;;
53873;SDS011;62246;50.938;4.058;2022-11-20T03:20:21;92.38;;;32.65;;
53873;SDS011;62246;50.938;4.058;2022-11-20T03:22:47;97.18;;;32.88;;
53873;SDS011;62246;50.938;4.058;2022-11-20T03:25:12;96.10;;;34.33;;
53873;SDS011;62246;50.938;4.058;2022-11-20T03:27:37;87.10;;;32.60;;
53873;SDS011;62246;50.938;4.058;2022-11-20T03:30:03;85.28;;;31.88;;
53873;SDS011;62246;50.938;4.058;2022-11-20T03:32:30;90.50;;;31.92;;
53873;SDS011;62246;50.938;4.058;2022-11-20T03:34:56;97.38;;;33.92;;
53873;SDS011;62246;50.938;4.058;2022-11-20T03:37:21;91.63;;;33.13;;
53873;SDS011;62246;50.938;4.058;2022-11-20T03:39:46;90.63;;;32.40;;
53873;SDS011;62246;50.938;4.058;2022-11-20T03:42:12;89.05;;;33.13;;
53873;SDS011;62246;50.938;4.058;2022-11-20T03:44:58;86.28;;;31.92;;
53873;SDS011;62246;50.938;4.058;2022-11-20T03:47:23;94.68;;;33.85;;
53873;SDS011;62246;50.938;4.058;2022-11-20T03:49:48;85.60;;;32.08;;
53873;SDS011;62246;50.938;4.058;2022-11-20T03:52:14;96.55;;;33.75;;
53873;SDS011;62246;50.938;4.058;2022-11-20T03:54:39;80.68;;;30.10;;
53873;SDS011;62246;50.938;4.058;2022-11-20T03:57:05;89.68;;;33.78;;
53873;SDS011;62246;50.938;4.058;2022-11-20T03:59:30;79.60;;;30.17;;
53873;SDS011;62246;50.938;4.058;2022-11-20T04:01:56;84.40;;;31.42;;
53873;SDS011;62246;50.938;4.058;2022-11-20T04:04:21;96.30;;;33.33;;
53873;SDS011;62246;50.938;4.058;2022-11-20T04:06:47;91.80;;;32.67;;
53873;SDS011;62246;50.938;4.058;2022-11-20T04:09:12;91.78;;;32.35;;
53873;SDS011;62246;50.938;4.058;2022-11-20T04:11:39;88.55;;;31.85;;
53873;SDS011;62246;50.938;4.058;2022-11-20T04:14:05;101.68;;;33.40;;
53873;SDS011;62246;50.938;4.058;2022-11-20T04:16:34;78.05;;;29.35;;
53873;SDS011;62246;50.938;4.058;2022-11-20T04:19:01;95.05;;;31.98;;
53873;SDS011;62246;50.938;4.058;2022-11-20T04:21:28;96.55;;;31.23;;
53873;SDS011;62246;50.938;4.058;2022-11-20T04:23:54;87.75;;;31.05;;
53873;SDS011;62246;50.938;4.058;2022-11-20T04:26:21;84.63;;;30.45;;
53873;SDS011;62246;50.938;4.058;2022-11-20T04:28:48;94.65;;;31.48;;
53873;SDS011;62246;50.938;4.058;2022-11-20T04:31:14;77.57;;;30.73;;
53873;SDS011;62246;50.938;4.058;2022-11-20T04:33:42;88.72;;;31.52;;
53873;SDS011;62246;50.938;4.058;2022-11-20T04:36:10;85.13;;;29.92;;
53873;SDS011;62246;50.938;4.058;2022-11-20T04:38:37;89.38;;;31.17;;
53873;SDS011;62246;50.938;4.058;2022-11-20T04:41:04;89.15;;;30.70;;
53873;SDS011;62246;50.938;4.058;2022-11-20T04:43:30;81.32;;;30.73;;
53873;SDS011;62246;50.938;4.058;2022-11-20T04:45:57;90.80;;;32.55;;
53873;SDS011;62246;50.938;4.058;2022-11-20T04:48:23;97.22;;;34.00;;
53873;SDS011;62246;50.938;4.058;2022-11-20T04:50:50;95.07;;;32.42;;
53873;SDS011;62246;50.938;4.058;2022-11-20T04:53:16;98.47;;;32.97;;
53873;SDS011;62246;50.938;4.058;2022-11-20T04:55:42;100.97;;;33.33;;
53873;SDS011;62246;50.938;4.058;2022-11-20T04:58:07;89.22;;;30.60;;
53873;SDS011;62246;50.938;4.058;2022-11-20T05:00:33;89.43;;;32.72;;
53873;SDS011;62246;50.938;4.058;2022-11-20T05:02:59;98.93;;;33.38;;
53873;SDS011;62246;50.938;4.058;2022-11-20T05:05:24;88.93;;;31.48;;
53873;SDS011;62246;50.938;4.058;2022-11-20T05:07:50;92.75;;;31.75;;
53873;SDS011;62246;50.938;4.058;2022-11-20T05:10:15;98.88;;;32.08;;
53873;SDS011;62246;50.938;4.058;2022-11-20T05:12:41;98.72;;;32.53;;
53873;SDS011;62246;50.938;4.058;2022-11-20T05:15:07;101.18;;;33.78;;
53873;SDS011;62246;50.938;4.058;2022-11-20T05:17:33;87.30;;;31.13;;
53873;SDS011;62246;50.938;4.058;2022-11-20T05:19:58;82.85;;;31.63;;
53873;SDS011;62246;50.938;4.058;2022-11-20T05:22:23;93.70;;;31.70;;
53873;SDS011;62246;50.938;4.058;2022-11-20T05:24:49;101.63;;;32.20;;
53873;SDS011;62246;50.938;4.058;2022-11-20T05:27:14;92.03;;;32.17;;
53873;SDS011;62246;50.938;4.058;2022-11-20T05:29:40;99.65;;;33.20;;
53873;SDS011;62246;50.938;4.058;2022-11-20T05:32:05;92.07;;;31.80;;
53873;SDS011;62246;50.938;4.058;2022-11-20T05:34:33;91.40;;;30.27;;
53873;SDS011;62246;50.938;4.058;2022-11-20T05:36:59;94.13;;;32.00;;
53873;SDS011;62246;50.938;4.058;2022-11-20T05:39:24;100.03;;;32.35;;
53873;SDS011;62246;50.938;4.058;2022-11-20T05:41:50;96.95;;;31.67;;
53873;SDS011;62246;50.938;4.058;2022-11-20T05:44:35;100.15;;;31.33;;
53873;SDS011;62246;50.938;4.058;2022-11-20T05:47:01;97.22;;;31.35;;
53873;SDS011;62246;50.938;4.058;2022-11-20T05:49:26;116.30;;;33.78;;
53873;SDS011;62246;50.938;4.058;2022-11-20T05:51:51;101.40;;;31.55;;
53873;SDS011;62246;50.938;4.058;2022-11-20T05:54:17;100.45;;;31.63;;
53873;SDS011;62246;50.938;4.058;2022-11-20T05:56:42;105.53;;;31.88;;
53873;SDS011;62246;50.938;4.058;2022-11-20T05:59:08;103.95;;;33.03;;
53873;SDS011;62246;50.938;4.058;2022-11-20T06:01:33;118.20;;;33.58;;
53873;SDS011;62246;50.938;4.058;2022-11-20T06:04:01;113.30;;;32.72;;
53873;SDS011;62246;50.938;4.058;2022-11-20T06:06:26;104.88;;;32.05;;
53873;SDS011;62246;50.938;4.058;2022-11-20T06:08:52;122.45;;;33.63;;
53873;SDS011;62246;50.938;4.058;2022-11-20T06:11:17;105.45;;;33.35;;
53873;SDS011;62246;50.938;4.058;2022-11-20T06:13:43;105.15;;;32.13;;
53873;SDS011;62246;50.938;4.058;2022-11-20T06:16:10;109.43;;;32.78;;
53873;SDS011;62246;50.938;4.058;2022-11-20T06:18:36;104.63;;;32.17;;
53873;SDS011;62246;50.938;4.058;2022-11-20T06:21:03;121.03;;;34.20;;
53873;SDS011;62246;50.938;4.058;2022-11-20T06:23:29;101.22;;;32.00;;
53873;SDS011;62246;50.938;4.058;2022-11-20T06:25:58;109.22;;;32.20;;
53873;SDS011;62246;50.938;4.058;2022-11-20T06:28:28;119.03;;;33.38;;
53873;SDS011;62246;50.938;4.058;2022-11-20T06:30:53;110.18;;;33.78;;
53873;SDS011;62246;50.938;4.058;2022-11-20T06:33:18;116.25;;;33.47;;
53873;SDS011;62246;50.938;4.058;2022-11-20T06:35:44;101.45;;;32.22;;
53873;SDS011;62246;50.938;4.058;2022-11-20T06:38:09;101.70;;;32.13;;
53873;SDS011;62246;50.938;4.058;2022-11-20T06:40:35;116.43;;;32.75;;
53873;SDS011;62246;50.938;4.058;2022-11-20T06:43:00;109.65;;;32.47;;
53873;SDS011;62246;50.938;4.058;2022-11-20T06:45:26;115.03;;;34.03;;
53873;SDS011;62246;50.938;4.058;2022-11-20T06:47:51;102.82;;;32.45;;
53873;SDS011;62246;50.938;4.058;2022-11-20T06:50:17;113.75;;;33.92;;
53873;SDS011;62246;50.938;4.058;2022-11-20T06:52:42;107.47;;;33.00;;
53873;SDS011;62246;50.938;4.058;2022-11-20T06:55:08;105.10;;;32.97;;
53873;SDS011;62246;50.938;4.058;2022-11-20T06:57:33;106.15;;;33.22;;
53873;SDS011;62246;50.938;4.058;2022-11-20T06:59:59;109.70;;;33.30;;
53873;SDS011;62246;50.938;4.058;2022-11-20T07:02:24;108.45;;;31.98;;
53873;SDS011;62246;50.938;4.058;2022-11-20T07:04:49;103.25;;;31.67;;
53873;SDS011;62246;50.938;4.058;2022-11-20T07:07:15;102.60;;;32.88;;
53873;SDS011;62246;50.938;4.058;2022-11-20T07:09:40;109.90;;;33.30;;
53873;SDS011;62246;50.938;4.058;2022-11-20T07:12:05;107.38;;;31.55;;
53873;SDS011;62246;50.938;4.058;2022-11-20T07:14:31;89.00;;;30.50;;
53873;SDS011;62246;50.938;4.058;2022-11-20T07:16:56;97.65;;;31.70;;
53873;SDS011;62246;50.938;4.058;2022-11-20T07:19:22;99.28;;;30.90;;
53873;SDS011;62246;50.938;4.058;2022-11-20T07:21:47;91.55;;;29.95;;
53873;SDS011;62246;50.938;4.058;2022-11-20T07:24:12;96.78;;;32.30;;
53873;SDS011;62246;50.938;4.058;2022-11-20T07:26:40;100.22;;;30.85;;
53873;SDS011;62246;50.938;4.058;2022-11-20T07:29:06;89.18;;;29.65;;
53873;SDS011;62246;50.938;4.058;2022-11-20T07:31:31;94.43;;;30.85;;
53873;SDS011;62246;50.938;4.058;2022-11-20T07:33:57;91.32;;;29.73;;
53873;SDS011;62246;50.938;4.058;2022-11-20T07:36:22;101.53;;;30.95;;
53873;SDS011;62246;50.938;4.058;2022-11-20T07:38:47;92.28;;;30.27;;
53873;SDS011;62246;50.938;4.058;2022-11-20T07:41:13;97.95;;;31.63;;
53873;SDS011;62246;50.938;4.058;2022-11-20T07:43:39;102.22;;;32.42;;
53873;SDS011;62246;50.938;4.058;2022-11-20T07:46:04;99.35;;;31.55;;
53873;SDS011;62246;50.938;4.058;2022-11-20T07:48:30;88.13;;;30.85;;
53873;SDS011;62246;50.938;4.058;2022-11-20T07:50:56;91.30;;;29.42;;
53873;SDS011;62246;50.938;4.058;2022-11-20T07:53:22;92.53;;;29.55;;
53873;SDS011;62246;50.938;4.058;2022-11-20T07:55:48;83.32;;;27.42;;
53873;SDS011;62246;50.938;4.058;2022-11-20T07:58:13;91.43;;;30.15;;
53873;SDS011;62246;50.938;4.058;2022-11-20T08:00:39;89.32;;;29.50;;
53873;SDS011;62246;50.938;4.058;2022-11-20T08:03:05;80.97;;;28.02;;
53873;SDS011;62246;50.938;4.058;2022-11-20T08:05:31;84.18;;;28.48;;
53873;SDS011;62246;50.938;4.058;2022-11-20T08:07:57;84.65;;;28.58;;
53873;SDS011;62246;50.938;4.058;2022-11-20T08:10:22;85.22;;;28.80;;
53873;SDS011;62246;50.938;4.058;2022-11-20T08:12:49;83.78;;;26.58;;
53873;SDS011;62246;50.938;4.058;2022-11-20T08:15:34;84.40;;;28.33;;
53873;SDS011;62246;50.938;4.058;2022-11-20T08:18:04;85.07;;;27.70;;
53873;SDS011;62246;50.938;4.058;2022-11-20T08:20:32;79.85;;;27.30;;
53873;SDS011;62246;50.938;4.058;2022-11-20T08:23:01;85.63;;;27.50;;
53873;SDS011;62246;50.938;4.058;2022-11-20T08:25:31;82.45;;;28.70;;
53873;SDS011;62246;50.938;4.058;2022-11-20T08:27:58;86.43;;;27.88;;
53873;SDS011;62246;50.938;4.058;2022-11-20T08:30:25;78.70;;;26.45;;
53873;SDS011;62246;50.938;4.058;2022-11-20T08:32:51;80.97;;;25.33;;
53873;SDS011;62246;50.938;4.058;2022-11-20T08:35:17;84.40;;;26.40;;
53873;SDS011;62246;50.938;4.058;2022-11-20T08:37:45;74.50;;;25.83;;
53873;SDS011;62246;50.938;4.058;2022-11-20T08:40:11;81.13;;;25.70;;
53873;SDS011;62246;50.938;4.058;2022-11-20T08:42:37;75.50;;;26.52;;
53873;SDS011;62246;50.938;4.058;2022-11-20T08:45:10;67.70;;;24.27;;
53873;SDS011;62246;50.938;4.058;2022-11-20T08:47:35;79.18;;;25.63;;
53873;SDS011;62246;50.938;4.058;2022-11-20T08:50:01;75.45;;;24.77;;
53873;SDS011;62246;50.938;4.058;2022-11-20T08:52:27;82.88;;;26.73;;
53873;SDS011;62246;50.938;4.058;2022-11-20T08:54:53;84.20;;;26.80;;
53873;SDS011;62246;50.938;4.058;2022-11-20T08:57:18;79.28;;;25.67;;
53873;SDS011;62246;50.938;4.058;2022-11-20T08:59:44;85.25;;;26.77;;
53873;SDS011;62246;50.938;4.058;2022-11-20T09:02:09;77.43;;;25.90;;
53873;SDS011;62246;50.938;4.058;2022-11-20T09:04:34;78.55;;;25.10;;
53873;SDS011;62246;50.938;4.058;2022-11-20T09:07:00;78.07;;;25.73;;
53873;SDS011;62246;50.938;4.058;2022-11-20T09:09:25;81.95;;;24.90;;
53873;SDS011;62246;50.938;4.058;2022-11-20T09:11:51;75.57;;;25.08;;
53873;SDS011;62246;50.938;4.058;2022-11-20T09:14:16;80.70;;;26.00;;
53873;SDS011;62246;50.938;4.058;2022-11-20T09:16:44;76.85;;;24.10;;
53873;SDS011;62246;50.938;4.058;2022-11-20T09:19:10;70.53;;;24.17;;
53873;SDS011;62246;50.938;4.058;2022-11-20T09:21:35;72.40;;;23.23;;
53873;SDS011;62246;50.938;4.058;2022-11-20T09:24:01;65.60;;;23.60;;
53873;SDS011;62246;50.938;4.058;2022-11-20T09:26:26;69.45;;;24.50;;
53873;SDS011;62246;50.938;4.058;2022-11-20T09:28:52;63.60;;;23.35;;
53873;SDS011;62246;50.938;4.058;2022-11-20T09:31:24;59.97;;;22.05;;
53873;SDS011;62246;50.938;4.058;2022-11-20T09:33:51;65.05;;;21.92;;
53873;SDS011;62246;50.938;4.058;2022-11-20T09:36:16;59.72;;;22.40;;
53873;SDS011;62246;50.938;4.058;2022-11-20T09:38:44;63.13;;;22.45;;
53873;SDS011;62246;50.938;4.058;2022-11-20T09:41:18;52.08;;;21.25;;
53873;SDS011;62246;50.938;4.058;2022-11-20T09:43:58;54.95;;;21.38;;
53873;SDS011;62246;50.938;4.058;2022-11-20T09:46:38;53.38;;;20.80;;
53873;SDS011;62246;50.938;4.058;2022-11-20T09:51:52;56.55;;;19.90;;
53873;SDS011;62246;50.938;4.058;2022-11-20T09:54:56;48.85;;;20.30;;
53873;SDS011;62246;50.938;4.058;2022-11-20T09:59:48;47.78;;;19.08;;
53873;SDS011;62246;50.938;4.058;2022-11-20T10:07:52;39.10;;;16.00;;
53873;SDS011;62246;50.938;4.058;2022-11-20T10:10:28;44.42;;;16.67;;
53873;SDS011;62246;50.938;4.058;2022-11-20T10:15:42;36.50;;;15.67;;
53873;SDS011;62246;50.938;4.058;2022-11-20T10:28:56;29.45;;;12.30;;
53873;SDS011;62246;50.938;4.058;2022-11-20T10:31:33;23.35;;;11.77;;
53873;SDS011;62246;50.938;4.058;2022-11-20T10:34:03;27.98;;;12.23;;
53873;SDS011;62246;50.938;4.058;2022-11-20T10:36:41;27.92;;;10.95;;
53873;SDS011;62246;50.938;4.058;2022-11-20T10:39:55;22.15;;;10.70;;
53873;SDS011;62246;50.938;4.058;2022-11-20T10:42:23;20.45;;;8.48;;
53873;SDS011;62246;50.938;4.058;2022-11-20T10:44:58;19.77;;;9.07;;
53873;SDS011;62246;50.938;4.058;2022-11-20T10:47:43;22.58;;;8.20;;
53873;SDS011;62246;50.938;4.058;2022-11-20T10:50:19;19.70;;;7.97;;
53873;SDS011;62246;50.938;4.058;2022-11-20T10:57:54;13.25;;;5.22;;
53873;SDS011;62246;50.938;4.058;2022-11-20T11:00:31;12.13;;;4.63;;
53873;SDS011;62246;50.938;4.058;2022-11-20T11:02:57;14.73;;;4.72;;
53873;SDS011;62246;50.938;4.058;2022-11-20T11:08:14;11.57;;;4.05;;
53873;SDS011;62246;50.938;4.058;2022-11-20T11:10:51;11.27;;;4.47;;
53873;SDS011;62246;50.938;4.058;2022-11-20T11:13:23;15.80;;;7.28;;
53873;SDS011;62246;50.938;4.058;2022-11-20T11:15:50;7.28;;;3.50;;
53873;SDS011;62246;50.938;4.058;2022-11-20T11:18:27;8.63;;;3.53;;
53873;SDS011;62246;50.938;4.058;2022-11-20T11:20:55;9.00;;;3.53;;
53873;SDS011;62246;50.938;4.058;2022-11-20T11:23:32;11.57;;;3.63;;
53873;SDS011;62246;50.938;4.058;2022-11-20T11:26:01;11.98;;;3.40;;
53873;SDS011;62246;50.938;4.058;2022-11-20T11:28:29;9.52;;;4.00;;
53873;SDS011;62246;50.938;4.058;2022-11-20T11:30:55;9.25;;;3.67;;
53873;SDS011;62246;50.938;4.058;2022-11-20T11:33:24;7.28;;;2.67;;
53873;SDS011;62246;50.938;4.058;2022-11-20T11:35:55;11.45;;;3.03;;
53873;SDS011;62246;50.938;4.058;2022-11-20T11:38:41;8.32;;;2.70;;
53873;SDS011;62246;50.938;4.058;2022-11-20T11:41:19;6.43;;;3.10;;
53873;SDS011;62246;50.938;4.058;2022-11-20T11:43:51;9.13;;;3.20;;
53873;SDS011;62246;50.938;4.058;2022-11-20T11:46:38;9.00;;;3.22;;
53873;SDS011;62246;50.938;4.058;2022-11-20T11:54:38;7.57;;;2.58;;
53873;SDS011;62246;50.938;4.058;2022-11-20T12:00:13;8.93;;;2.90;;
53873;SDS011;62246;50.938;4.058;2022-11-20T12:05:20;43.53;;;15.18;;
53873;SDS011;62246;50.938;4.058;2022-11-20T12:07:52;10.05;;;3.25;;
53873;SDS011;62246;50.938;4.058;2022-11-20T12:16:00;11.35;;;3.67;;
53873;SDS011;62246;50.938;4.058;2022-11-20T12:18:26;8.73;;;3.30;;
53873;SDS011;62246;50.938;4.058;2022-11-20T12:37:51;13.45;;;3.90;;
53873;SDS011;62246;50.938;4.058;2022-11-20T12:42:55;9.93;;;4.10;;
53873;SDS011;62246;50.938;4.058;2022-11-20T12:48:22;13.65;;;4.10;;
53873;SDS011;62246;50.938;4.058;2022-11-20T13:06:58;10.27;;;3.85;;
53873;SDS011;62246;50.938;4.058;2022-11-20T13:09:27;11.23;;;5.25;;
53873;SDS011;62246;50.938;4.058;2022-11-20T13:11:59;12.07;;;4.68;;
53873;SDS011;62246;50.938;4.058;2022-11-20T13:17:28;17.27;;;8.27;;
53873;SDS011;62246;50.938;4.058;2022-11-20T13:20:17;5.50;;;3.10;;
53873;SDS011;62246;50.938;4.058;2022-11-20T13:22:48;10.18;;;4.78;;
53873;SDS011;62246;50.938;4.058;2022-11-20T13:25:32;8.00;;;3.22;;
53873;SDS011;62246;50.938;4.058;2022-11-20T13:28:02;8.30;;;3.58;;
53873;SDS011;62246;50.938;4.058;2022-11-20T13:30:49;4.90;;;2.60;;
53873;SDS011;62246;50.938;4.058;2022-11-20T13:33:23;9.43;;;3.63;;
53873;SDS011;62246;50.938;4.058;2022-11-20T13:38:24;5.00;;;2.47;;
53873;SDS011;62246;50.938;4.058;2022-11-20T13:40:51;4.18;;;2.08;;
53873;SDS011;62246;50.938;4.058;2022-11-20T13:45:57;5.47;;;2.70;;
53873;SDS011;62246;50.938;4.058;2022-11-20T13:48:26;5.53;;;2.78;;
53873;SDS011;62246;50.938;4.058;2022-11-20T13:53:33;6.43;;;2.67;;
53873;SDS011;62246;50.938;4.058;2022-11-20T14:01:47;7.55;;;1.98;;
53873;SDS011;62246;50.938;4.058;2022-11-20T14:04:14;4.60;;;2.45;;
53873;SDS011;62246;50.938;4.058;2022-11-20T14:06:45;3.67;;;1.85;;
53873;SDS011;62246;50.938;4.058;2022-11-20T14:09:24;5.20;;;2.60;;
53873;SDS011;62246;50.938;4.058;2022-11-20T14:11:53;3.78;;;2.10;;
53873;SDS011;62246;50.938;4.058;2022-11-20T14:14:20;5.07;;;2.85;;
53873;SDS011;62246;50.938;4.058;2022-11-20T14:16:48;6.80;;;3.45;;
53873;SDS011;62246;50.938;4.058;2022-11-20T14:21:46;9.00;;;5.22;;
53873;SDS011;62246;50.938;4.058;2022-11-20T14:24:13;5.32;;;2.33;;
53873;SDS011;62246;50.938;4.058;2022-11-20T14:26:43;4.10;;;2.50;;
53873;SDS011;62246;50.938;4.058;2022-11-20T14:29:12;9.50;;;5.03;;
53873;SDS011;62246;50.938;4.058;2022-11-20T14:31:39;5.35;;;2.72;;
53873;SDS011;62246;50.938;4.058;2022-11-20T14:34:10;6.40;;;3.15;;
53873;SDS011;62246;50.938;4.058;2022-11-20T14:36:40;10.68;;;5.07;;
53873;SDS011;62246;50.938;4.058;2022-11-20T14:39:10;5.03;;;2.80;;
53873;SDS011;62246;50.938;4.058;2022-11-20T14:41:37;6.68;;;3.38;;
53873;SDS011;62246;50.938;4.058;2022-11-20T14:44:03;5.72;;;2.72;;
53873;SDS011;62246;50.938;4.058;2022-11-20T14:46:30;5.38;;;2.92;;
53873;SDS011;62246;50.938;4.058;2022-11-20T14:49:00;6.93;;;3.35;;
53873;SDS011;62246;50.938;4.058;2022-11-20T14:54:14;3.10;;;1.98;;
53873;SDS011;62246;50.938;4.058;2022-11-20T14:56:41;8.45;;;3.70;;
53873;SDS011;62246;50.938;4.058;2022-11-20T14:59:07;8.55;;;4.85;;
53873;SDS011;62246;50.938;4.058;2022-11-20T15:01:34;6.50;;;3.33;;
53873;SDS011;62246;50.938;4.058;2022-11-20T15:04:01;7.25;;;3.53;;
53873;SDS011;62246;50.938;4.058;2022-11-20T15:06:27;6.88;;;3.67;;
53873;SDS011;62246;50.938;4.058;2022-11-20T15:08:53;8.65;;;4.05;;
53873;SDS011;62246;50.938;4.058;2022-11-20T15:11:19;10.80;;;5.68;;
53873;SDS011;62246;50.938;4.058;2022-11-20T15:13:50;14.82;;;6.97;;
53873;SDS011;62246;50.938;4.058;2022-11-20T15:16:20;22.20;;;10.38;;
53873;SDS011;62246;50.938;4.058;2022-11-20T15:18:48;6.60;;;2.97;;
53873;SDS011;62246;50.938;4.058;2022-11-20T15:21:14;22.63;;;9.65;;
53873;SDS011;62246;50.938;4.058;2022-11-20T15:23:41;13.65;;;5.68;;
53873;SDS011;62246;50.938;4.058;2022-11-20T15:26:08;28.13;;;13.00;;
53873;SDS011;62246;50.938;4.058;2022-11-20T15:28:39;18.48;;;8.40;;
53873;SDS011;62246;50.938;4.058;2022-11-20T15:31:06;27.27;;;11.02;;
53873;SDS011;62246;50.938;4.058;2022-11-20T15:33:34;23.23;;;11.05;;
53873;SDS011;62246;50.938;4.058;2022-11-20T15:35:59;20.65;;;7.70;;
53873;SDS011;62246;50.938;4.058;2022-11-20T15:38:25;28.98;;;9.43;;
53873;SDS011;62246;50.938;4.058;2022-11-20T15:40:51;27.63;;;10.55;;
53873;SDS011;62246;50.938;4.058;2022-11-20T15:43:17;24.95;;;10.57;;
53873;SDS011;62246;50.938;4.058;2022-11-20T15:45:43;22.13;;;8.13;;
53873;SDS011;62246;50.938;4.058;2022-11-20T15:48:11;34.42;;;14.82;;
53873;SDS011;62246;50.938;4.058;2022-11-20T15:53:25;23.48;;;8.07;;
53873;SDS011;62246;50.938;4.058;2022-11-20T15:55:50;27.92;;;8.18;;
53873;SDS011;62246;50.938;4.058;2022-11-20T15:58:16;35.97;;;11.30;;
53873;SDS011;62246;50.938;4.058;2022-11-20T16:00:42;54.75;;;22.35;;
53873;SDS011;62246;50.938;4.058;2022-11-20T16:03:14;35.50;;;12.75;;
53873;SDS011;62246;50.938;4.058;2022-11-20T16:05:42;26.50;;;6.55;;
53873;SDS011;62246;50.938;4.058;2022-11-20T16:08:07;25.55;;;6.80;;
53873;SDS011;62246;50.938;4.058;2022-11-20T16:10:33;62.10;;;21.13;;
53873;SDS011;62246;50.938;4.058;2022-11-20T16:12:58;48.13;;;16.15;;
53873;SDS011;62246;50.938;4.058;2022-11-20T16:15:42;25.95;;;5.45;;
53873;SDS011;62246;50.938;4.058;2022-11-20T16:18:17;25.52;;;6.63;;
53873;SDS011;62246;50.938;4.058;2022-11-20T16:20:45;29.60;;;10.23;;
53873;SDS011;62246;50.938;4.058;2022-11-20T16:23:13;27.48;;;9.05;;
53873;SDS011;62246;50.938;4.058;2022-11-20T16:25:38;26.83;;;9.10;;
53873;SDS011;62246;50.938;4.058;2022-11-20T16:28:04;27.58;;;7.90;;
53873;SDS011;62246;50.938;4.058;2022-11-20T16:30:33;19.88;;;4.47;;